Time;durP1;ratioP1;P1;durP2;ratioP2;P2;SDS_P1;SDS_P2;PMS_P1;PMS_P2;Temp;Humidity;BMP_temperature;BMP_pressure;BME280_temperature;BME280_humidity;BME280_pressure;Samples;Min_cycle;Max_cycle;Signal;HPM_P1;HPM_P2
2023/08/09 00:00:49;;;;;;;6.65;1.60;;;11.30;99.90;;;;;;5064143;28;20139;-81
2023/08/09 00:03:15;;;;;;;8.10;1.45;;;11.30;99.90;;;;;;5066129;28;20392;-81
2023/08/09 00:05:41;;;;;;;7.28;1.30;;;11.30;99.90;;;;;;5066750;28;20389;-81
2023/08/09 00:08:07;;;;;;;6.35;1.40;;;11.40;99.90;;;;;;5065270;28;20112;-81
2023/08/09 00:10:33;;;;;;;8.57;1.77;;;11.30;99.90;;;;;;5064702;28;20040;-81
2023/08/09 00:12:59;;;;;;;6.82;1.42;;;11.30;99.90;;;;;;5066468;28;20071;-81
2023/08/09 00:15:25;;;;;;;7.10;1.75;;;11.30;99.90;;;;;;5065583;28;20488;-81
2023/08/09 00:17:51;;;;;;;6.53;1.30;;;11.20;99.90;;;;;;5063548;28;20377;-81
2023/08/09 00:20:17;;;;;;;7.00;1.58;;;11.20;99.90;;;;;;5066629;28;20040;-81
2023/08/09 00:22:42;;;;;;;5.95;1.30;;;11.20;99.90;;;;;;5064864;28;20123;-81
2023/08/09 00:25:13;;;;;;;7.50;1.58;;;11.20;99.90;;;;;;5048524;28;20037;-81
2023/08/09 00:27:39;;;;;;;6.80;1.30;;;11.20;99.90;;;;;;5064242;28;20083;-81
2023/08/09 00:30:10;;;;;;;8.13;1.60;;;11.20;99.90;;;;;;5065690;28;20049;-81
2023/08/09 00:32:37;;;;;;;5.47;1.63;;;11.20;99.90;;;;;;5063165;28;20145;-81
2023/08/09 00:35:03;;;;;;;4.68;1.35;;;11.20;99.90;;;;;;5065905;28;20179;-81
2023/08/09 00:37:29;;;;;;;6.82;1.70;;;11.10;99.90;;;;;;5065825;28;20094;-81
2023/08/09 00:39:55;;;;;;;6.72;1.30;;;11.10;99.90;;;;;;5065442;28;20080;-81
2023/08/09 00:42:23;;;;;;;5.65;1.10;;;11.10;99.90;;;;;;5048038;28;20056;-81
2023/08/09 00:44:49;;;;;;;5.35;1.42;;;11.10;99.90;;;;;;5064158;28;20101;-81
2023/08/09 00:47:15;;;;;;;6.50;1.35;;;11.10;99.90;;;;;;5064307;28;20053;-81
2023/08/09 00:49:41;;;;;;;9.52;1.30;;;11.10;99.90;;;;;;5064277;28;20200;-81
2023/08/09 00:52:08;;;;;;;4.25;1.45;;;11.00;99.90;;;;;;5065801;28;20044;-80
2023/08/09 00:54:33;;;;;;;6.95;1.38;;;10.90;99.90;;;;;;5068676;28;20047;-81
2023/08/09 00:56:59;;;;;;;5.05;1.20;;;10.90;99.90;;;;;;5069831;28;20037;-81
2023/08/09 00:59:25;;;;;;;5.05;1.17;;;10.90;99.90;;;;;;5069574;28;20047;-81
2023/08/09 01:01:51;;;;;;;3.53;1.00;;;10.90;99.90;;;;;;5083606;28;20584;-81
2023/08/09 01:04:17;;;;;;;5.88;1.20;;;10.90;99.90;;;;;;5069062;28;20113;-81
2023/08/09 01:07:19;;;;;;;5.80;1.23;;;10.80;99.90;;;;;;5066680;28;20068;-81
2023/08/09 01:10:10;;;;;;;5.28;1.15;;;10.90;99.90;;;;;;5068382;28;20127;-81
2023/08/09 01:12:42;;;;;;;5.72;1.35;;;11.00;99.90;;;;;;5068528;28;20074;-81
2023/08/09 01:15:12;;;;;;;5.63;1.30;;;11.00;99.90;;;;;;5052548;28;20446;-81
2023/08/09 01:17:40;;;;;;;3.25;1.00;;;11.00;99.90;;;;;;5068476;28;20048;-81
2023/08/09 01:20:11;;;;;;;10.02;1.50;;;11.10;99.90;;;;;;5069754;28;20041;-81
2023/08/09 01:22:44;;;;;;;8.27;1.23;;;11.10;99.90;;;;;;5080928;28;20040;-81
2023/08/09 01:25:10;;;;;;;;;;;11.10;99.90;;;;;;5069588;28;20094;-81
2023/08/09 01:27:36;;;;;;;9.63;1.25;;;11.00;99.90;;;;;;5066440;28;20359;-81
2023/08/09 01:30:06;;;;;;;6.35;1.05;;;11.10;99.90;;;;;;5068443;28;20106;-81
2023/08/09 01:32:31;;;;;;;8.43;1.30;;;11.10;99.90;;;;;;5068510;28;20048;-80
2023/08/09 01:34:58;;;;;;;5.88;1.00;;;11.10;99.90;;;;;;5067576;28;20067;-81
2023/08/09 01:37:27;;;;;;;7.57;1.13;;;11.10;99.90;;;;;;5068009;28;20439;-81
2023/08/09 01:39:57;;;;;;;6.57;1.30;;;11.30;99.90;;;;;;5069446;28;20063;-81
2023/08/09 01:42:23;;;;;;;7.60;1.20;;;11.20;99.90;;;;;;5066888;28;20128;-81
2023/08/09 01:44:49;;;;;;;6.88;1.33;;;11.20;99.90;;;;;;5068967;28;21043;-81
2023/08/09 01:47:16;;;;;;;4.90;1.08;;;11.20;99.90;;;;;;5083932;28;20098;-81
2023/08/09 01:49:47;;;;;;;4.15;1.13;;;11.30;99.90;;;;;;5068197;28;20396;-81
2023/08/09 01:52:13;;;;;;;9.65;1.17;;;11.30;99.90;;;;;;5055990;28;20116;-81
2023/08/09 01:54:39;;;;;;;7.63;1.20;;;11.30;99.90;;;;;;5067373;28;20084;-81
2023/08/09 01:57:05;;;;;;;6.45;1.20;;;11.20;99.90;;;;;;5068375;28;20079;-81
2023/08/09 01:59:30;;;;;;;8.27;1.52;;;11.20;99.90;;;;;;5068807;28;20456;-81
2023/08/09 02:01:56;;;;;;;6.32;1.17;;;11.20;99.90;;;;;;5067647;28;20046;-81
2023/08/09 02:04:23;;;;;;;6.50;1.00;;;11.20;99.90;;;;;;5066399;28;20049;-81
2023/08/09 02:06:48;;;;;;;6.15;1.27;;;11.10;99.90;;;;;;5054606;28;20064;-81
2023/08/09 02:09:14;;;;;;;7.03;1.40;;;11.10;99.90;;;;;;5050595;28;20492;-81
2023/08/09 02:11:40;;;;;;;6.20;1.35;;;11.00;99.90;;;;;;5067357;28;20094;-81
2023/08/09 02:14:05;;;;;;;5.55;1.30;;;11.00;99.90;;;;;;5067839;28;20049;-81
2023/08/09 02:16:32;;;;;;;5.25;0.90;;;10.90;99.90;;;;;;5067436;28;20048;-80
2023/08/09 02:18:58;;;;;;;4.35;1.17;;;10.70;99.90;;;;;;5051163;28;20049;-81
2023/08/09 02:21:25;;;;;;;3.80;1.30;;;10.70;99.90;;;;;;5068750;28;20400;-81
2023/08/09 02:23:51;;;;;;;3.88;1.00;;;10.60;99.90;;;;;;5066275;28;20045;-81
2023/08/09 02:26:18;;;;;;;8.25;1.25;;;10.50;99.90;;;;;;5051446;28;20495;-80
2023/08/09 02:28:45;;;;;;;6.78;1.55;;;10.40;99.90;;;;;;5067046;28;20048;-81
2023/08/09 02:31:11;;;;;;;4.65;1.23;;;10.40;99.90;;;;;;5049921;28;20112;-81
2023/08/09 02:33:38;;;;;;;5.65;1.05;;;10.40;99.90;;;;;;5066627;28;20037;-81
2023/08/09 02:36:04;;;;;;;4.25;0.90;;;10.30;99.90;;;;;;5068280;28;20040;-81
2023/08/09 02:38:31;;;;;;;6.45;1.38;;;10.30;99.90;;;;;;5049815;28;20045;-80
2023/08/09 02:40:59;;;;;;;6.07;1.30;;;10.30;99.90;;;;;;5050165;28;20307;-81
2023/08/09 02:43:25;;;;;;;5.95;1.40;;;10.30;99.90;;;;;;5068618;28;20222;-81
2023/08/09 02:45:52;;;;;;;6.22;1.20;;;10.30;99.90;;;;;;5066251;28;20399;-80
2023/08/09 02:48:19;;;;;;;6.70;1.20;;;10.30;99.90;;;;;;5068581;28;20120;-81
2023/08/09 02:50:44;;;;;;;8.85;1.45;;;10.20;99.90;;;;;;5067092;28;20131;-81
2023/08/09 02:53:11;;;;;;;7.35;1.25;;;10.20;99.90;;;;;;5067210;28;20400;-81
2023/08/09 02:55:37;;;;;;;5.07;1.33;;;10.10;99.90;;;;;;5066220;28;20077;-80
2023/08/09 02:58:04;;;;;;;6.82;1.40;;;10.10;99.90;;;;;;5067538;28;20044;-81
2023/08/09 03:00:34;;;;;;;6.03;1.25;;;10.10;99.90;;;;;;5050046;28;20514;-81
2023/08/09 03:03:00;;;;;;;5.93;1.30;;;10.10;99.90;;;;;;5065589;28;20052;-81
2023/08/09 03:05:27;;;;;;;3.97;1.60;;;10.00;99.90;;;;;;5066498;28;20044;-81
2023/08/09 03:07:53;;;;;;;5.40;1.23;;;10.00;99.90;;;;;;5066485;28;20064;-81
2023/08/09 03:10:19;;;;;;;5.10;1.67;;;10.00;99.90;;;;;;5049870;28;20377;-81
2023/08/09 03:12:45;;;;;;;4.70;1.40;;;9.90;99.90;;;;;;5065633;28;20048;-81
2023/08/09 03:15:11;;;;;;;5.90;1.50;;;9.90;99.90;;;;;;5066396;28;20515;-81
2023/08/09 03:17:37;;;;;;;8.57;1.73;;;9.80;99.90;;;;;;5065794;28;20079;-81
2023/08/09 03:20:13;;;;;;;5.32;1.35;;;9.80;99.90;;;;;;5065395;28;20127;-81
2023/08/09 03:22:43;;;;;;;5.80;1.40;;;9.80;99.90;;;;;;5048754;28;20048;-81
2023/08/09 03:25:10;;;;;;;7.35;1.75;;;9.70;99.90;;;;;;5066322;28;20048;-81
2023/08/09 03:27:36;;;;;;;7.13;1.23;;;9.70;99.90;;;;;;5064633;28;20074;-81
2023/08/09 03:30:05;;;;;;;5.47;1.45;;;9.70;99.90;;;;;;5067454;28;20044;-81
2023/08/09 03:32:30;;;;;;;12.48;1.77;;;9.70;99.90;;;;;;5081945;28;20067;-81
2023/08/09 03:34:56;;;;;;;9.70;1.98;;;9.70;99.90;;;;;;5048368;28;20040;-81
2023/08/09 03:37:22;;;;;;;6.80;1.55;;;9.60;99.90;;;;;;5065382;28;20048;-81
2023/08/09 03:39:48;;;;;;;3.63;1.30;;;9.60;99.90;;;;;;5065502;28;20055;-81
2023/08/09 03:42:13;;;;;;;7.53;1.40;;;9.70;99.90;;;;;;5066284;28;20051;-81
2023/08/09 03:44:39;;;;;;;6.25;1.27;;;9.60;99.90;;;;;;5066825;28;20041;-81
2023/08/09 03:47:05;;;;;;;8.18;1.40;;;9.60;99.90;;;;;;5065977;28;20452;-80
2023/08/09 03:49:30;;;;;;;8.52;1.40;;;9.70;99.90;;;;;;5065493;28;20076;-81
2023/08/09 03:51:56;;;;;;;5.93;1.48;;;9.70;99.90;;;;;;5064685;28;20115;-81
2023/08/09 03:54:22;;;;;;;3.80;1.60;;;9.70;99.90;;;;;;5065530;28;20144;-81
2023/08/09 03:56:47;;;;;;;6.63;1.50;;;9.70;99.90;;;;;;5065680;28;20040;-81
2023/08/09 03:59:16;;;;;;;6.68;1.40;;;9.70;99.90;;;;;;5050492;28;20126;-81
2023/08/09 04:01:43;;;;;;;4.47;1.58;;;9.70;99.90;;;;;;5046839;28;20087;-81
2023/08/09 04:04:09;;;;;;;3.88;1.50;;;9.60;99.90;;;;;;5066062;28;20055;-81
2023/08/09 04:06:34;;;;;;;7.88;1.50;;;9.50;99.90;;;;;;5066526;28;20139;-81
2023/08/09 04:09:00;;;;;;;10.45;1.48;;;9.50;99.90;;;;;;5048112;28;20146;-80
2023/08/09 04:11:26;;;;;;;3.80;1.35;;;9.50;99.90;;;;;;5065864;28;20068;-81
2023/08/09 04:13:51;;;;;;;5.28;1.38;;;9.40;99.90;;;;;;5065798;28;20048;-81
2023/08/09 04:16:18;;;;;;;4.15;1.42;;;9.40;99.90;;;;;;5063225;28;20070;-81
2023/08/09 04:18:43;;;;;;;4.07;1.35;;;9.40;99.90;;;;;;5057037;28;20056;-80
2023/08/09 04:21:09;;;;;;;4.65;1.52;;;9.40;99.90;;;;;;5064251;28;20114;-80
2023/08/09 04:23:35;;;;;;;5.75;1.48;;;9.60;99.90;;;;;;5065151;28;20048;-81
2023/08/09 04:26:02;;;;;;;6.00;1.38;;;9.50;99.90;;;;;;5063842;28;20082;-81
2023/08/09 04:28:28;;;;;;;9.10;1.95;;;9.50;99.90;;;;;;5062077;28;20046;-81
2023/08/09 04:30:53;;;;;;;6.22;1.58;;;9.50;99.90;;;;;;5076023;28;20045;-81
2023/08/09 04:33:19;;;;;;;9.27;1.85;;;9.60;99.90;;;;;;5071834;28;20076;-81
2023/08/09 04:35:45;;;;;;;7.70;1.63;;;9.60;99.90;;;;;;5072500;28;20098;-81
2023/08/09 04:38:10;;;;;;;7.43;1.60;;;9.60;99.90;;;;;;5068622;28;20060;-81
2023/08/09 04:40:36;;;;;;;8.07;1.75;;;9.60;99.90;;;;;;5050062;28;20040;-81
2023/08/09 04:43:03;;;;;;;6.90;1.92;;;9.70;99.90;;;;;;5068779;28;20067;-81
2023/08/09 04:45:29;;;;;;;6.40;1.70;;;9.70;99.90;;;;;;5049660;28;20068;-81
2023/08/09 04:47:56;;;;;;;6.90;1.58;;;9.70;99.90;;;;;;5066004;28;20052;-81
2023/08/09 04:50:23;;;;;;;9.32;1.85;;;9.70;99.90;;;;;;5067126;28;20044;-81
2023/08/09 04:52:49;;;;;;;8.30;1.60;;;9.70;99.90;;;;;;5065416;28;20048;-81
2023/08/09 04:55:16;;;;;;;5.80;1.92;;;9.80;99.90;;;;;;5063855;28;20044;-81
2023/08/09 04:57:42;;;;;;;8.30;1.60;;;9.80;99.90;;;;;;5063354;28;20095;-81
2023/08/09 05:00:13;;;;;;;10.00;1.83;;;9.90;99.90;;;;;;5070138;28;20037;-81
2023/08/09 05:02:39;;;;;;;8.43;2.10;;;9.90;99.90;;;;;;5067007;28;20088;-81
2023/08/09 05:05:10;;;;;;;7.97;2.00;;;10.10;99.90;;;;;;5081832;28;20080;-81
2023/08/09 05:07:37;;;;;;;4.05;1.90;;;10.20;99.90;;;;;;5068048;28;20131;-81
2023/08/09 05:10:04;;;;;;;4.05;1.60;;;10.20;99.90;;;;;;5085607;28;20399;-81
2023/08/09 05:12:30;;;;;;;5.35;1.30;;;10.30;99.90;;;;;;5067596;28;20041;-81
2023/08/09 05:14:57;;;;;;;5.88;1.60;;;10.40;99.90;;;;;;5055438;28;20427;-81
2023/08/09 05:17:23;;;;;;;10.35;1.92;;;10.50;99.90;;;;;;5073048;28;20411;-81
2023/08/09 05:19:49;;;;;;;5.50;1.77;;;10.60;99.90;;;;;;5067594;28;20040;-81
2023/08/09 05:22:15;;;;;;;10.02;2.00;;;10.70;99.90;;;;;;5072429;28;20450;-81
2023/08/09 05:24:40;;;;;;;4.43;1.40;;;10.80;99.90;;;;;;5070624;28;20127;-81
2023/08/09 05:27:06;;;;;;;6.15;1.63;;;10.90;99.90;;;;;;5071160;28;20154;-81
2023/08/09 05:29:32;;;;;;;6.32;1.58;;;11.30;99.90;;;;;;5071831;28;20044;-81
2023/08/09 05:31:58;;;;;;;6.50;1.60;;;11.20;99.90;;;;;;5056399;28;20494;-81
2023/08/09 05:34:24;;;;;;;7.47;1.70;;;11.30;99.90;;;;;;5070984;28;20040;-81
2023/08/09 05:36:50;;;;;;;5.38;1.75;;;11.40;99.90;;;;;;5075387;28;20442;-82
2023/08/09 05:39:15;;;;;;;7.45;1.75;;;11.50;99.90;;;;;;5073458;28;20108;-81
2023/08/09 05:41:41;;;;;;;7.45;1.38;;;11.60;99.90;;;;;;5075280;28;20048;-81
2023/08/09 05:44:07;;;;;;;6.70;1.60;;;11.80;99.90;;;;;;5071935;28;20119;-81
2023/08/09 05:46:33;;;;;;;7.03;1.50;;;11.90;99.90;;;;;;5077175;28;20251;-81
2023/08/09 05:48:59;;;;;;;8.05;1.50;;;12.00;99.90;;;;;;5072596;28;20056;-81
2023/08/09 05:51:25;;;;;;;8.32;1.50;;;12.20;99.90;;;;;;5060811;28;20032;-81
2023/08/09 05:53:51;;;;;;;11.05;1.60;;;12.30;99.90;;;;;;5073585;28;20049;-81
2023/08/09 05:56:17;;;;;;;4.00;1.20;;;12.40;99.90;;;;;;5068259;28;20040;-81
2023/08/09 05:58:43;;;;;;;8.13;1.50;;;12.60;99.90;;;;;;5056649;28;20590;-81
2023/08/09 06:01:09;;;;;;;6.43;1.20;;;12.70;99.90;;;;;;5077759;28;20151;-81
2023/08/09 06:03:39;;;;;;;5.32;1.27;;;12.80;99.90;;;;;;5068461;28;20040;-81
2023/08/09 06:06:10;;;;;;;16.88;1.58;;;13.00;99.90;;;;;;5038380;28;20221;-81
2023/08/09 06:08:37;;;;;;;6.43;1.50;;;13.10;99.90;;;;;;5070869;28;20476;-81
2023/08/09 06:11:03;;;;;;;4.78;1.15;;;13.20;99.90;;;;;;5072736;28;20037;-81
2023/08/09 06:13:30;;;;;;;4.80;1.05;;;13.30;99.90;;;;;;5077847;28;20056;-81
2023/08/09 06:15:56;;;;;;;7.93;1.23;;;13.40;99.90;;;;;;5074317;28;20488;-81
2023/08/09 06:18:23;;;;;;;5.43;0.98;;;13.50;99.90;;;;;;5073255;28;20037;-81
2023/08/09 06:20:49;;;;;;;9.65;1.13;;;13.60;99.90;;;;;;5058462;28;20062;-81
2023/08/09 06:23:15;;;;;;;7.53;1.17;;;13.70;99.90;;;;;;5070707;28;20403;-81
2023/08/09 06:25:41;;;;;;;6.63;1.10;;;13.80;99.90;;;;;;5051909;28;20152;-82
2023/08/09 06:28:07;;;;;;;5.75;1.02;;;13.90;99.90;;;;;;5073555;28;20552;-80
2023/08/09 06:30:33;;;;;;;7.93;0.93;;;14.00;99.90;;;;;;5072095;28;20079;-82
2023/08/09 06:32:59;;;;;;;5.55;0.98;;;14.20;99.90;;;;;;5049773;28;20071;-81
2023/08/09 06:35:25;;;;;;;5.40;0.90;;;14.20;99.90;;;;;;5067718;28;20044;-81
2023/08/09 06:37:52;;;;;;;7.43;0.90;;;14.30;99.90;;;;;;5065639;28;20045;-82
2023/08/09 06:40:18;;;;;;;9.52;1.38;;;14.40;99.90;;;;;;5066931;28;20518;-80
2023/08/09 06:42:44;;;;;;;3.67;0.70;;;14.60;99.90;;;;;;5065456;28;20637;-81
2023/08/09 06:45:11;;;;;;;10.30;1.17;;;14.70;99.90;;;;;;5054087;28;20394;-82
2023/08/09 06:47:37;;;;;;;8.30;1.33;;;14.70;99.90;;;;;;5057763;28;20048;-84
2023/08/09 06:50:04;;;;;;;4.95;0.85;;;14.80;99.90;;;;;;5077134;28;20044;-84
2023/08/09 06:52:37;;;;;;;5.55;0.93;;;14.90;99.90;;;;;;5058268;28;20044;-84
2023/08/09 06:55:07;;;;;;;6.07;1.20;;;15.00;99.90;;;;;;5048852;28;20035;-82
2023/08/09 06:57:33;;;;;;;7.10;0.85;;;15.10;99.90;;;;;;5058145;28;20115;-83
2023/08/09 06:59:59;;;;;;;4.32;0.80;;;15.20;99.90;;;;;;5067233;28;20477;-82
2023/08/09 07:02:26;;;;;;;6.13;1.00;;;15.30;99.90;;;;;;5063767;28;20044;-82
2023/08/09 07:04:54;;;;;;;5.95;0.98;;;15.40;99.90;;;;;;5064325;28;20441;-82
2023/08/09 07:07:20;;;;;;;5.18;1.33;;;15.50;99.90;;;;;;5065766;28;20048;-83
2023/08/09 07:09:46;;;;;;;2.83;0.68;;;15.60;99.90;;;;;;5047655;28;20044;-83
2023/08/09 07:12:12;;;;;;;6.55;0.90;;;15.70;99.90;;;;;;5055892;28;20492;-82
2023/08/09 07:14:38;;;;;;;8.95;1.27;;;15.80;99.90;;;;;;5054977;28;20036;-82
2023/08/09 07:17:03;;;;;;;4.55;0.90;;;16.00;99.90;;;;;;5066808;28;20056;-82
2023/08/09 07:19:29;;;;;;;3.45;0.93;;;16.00;99.90;;;;;;5063445;28;20400;-81
2023/08/09 07:21:55;;;;;;;5.10;0.90;;;16.10;99.90;;;;;;5075202;28;20067;-82
2023/08/09 07:24:21;;;;;;;9.38;1.20;;;16.20;99.90;;;;;;5066746;28;20396;-82
2023/08/09 07:26:46;;;;;;;4.20;0.90;;;16.30;99.90;;;;;;5064030;28;20373;-82
2023/08/09 07:29:12;;;;;;;7.50;1.13;;;16.30;99.90;;;;;;5066608;28;20048;-82
2023/08/09 07:31:38;;;;;;;5.85;0.85;;;16.40;99.90;;;;;;5064792;28;20136;-82
2023/08/09 07:34:04;;;;;;;7.20;1.10;;;16.50;99.90;;;;;;5067083;28;20384;-82
2023/08/09 07:36:30;;;;;;;4.55;0.93;;;16.50;99.90;;;;;;5075575;28;20052;-82
2023/08/09 07:38:58;;;;;;;9.82;1.13;;;16.60;99.90;;;;;;5040829;28;20507;-83
2023/08/09 07:41:24;;;;;;;8.63;1.00;;;16.70;99.90;;;;;;5063109;28;20036;-83
2023/08/09 07:43:50;;;;;;;5.05;0.88;;;16.80;99.90;;;;;;5058230;28;20093;-83
2023/08/09 07:46:16;;;;;;;6.95;1.45;;;16.80;99.90;;;;;;5064955;28;20052;-83
2023/08/09 07:48:42;;;;;;;6.40;1.10;;;16.90;99.90;;;;;;5047303;28;20051;-82
2023/08/09 07:51:11;;;;;;;3.88;0.68;;;17.10;99.90;;;;;;5046294;28;20044;-83
2023/08/09 07:53:38;;;;;;;5.38;0.90;;;17.10;99.90;;;;;;5057816;28;20064;-83
2023/08/09 07:56:04;;;;;;;8.52;1.08;;;17.10;99.90;;;;;;5066022;28;20048;-83
2023/08/09 07:58:30;;;;;;;4.53;0.90;;;17.20;99.90;;;;;;5064270;28;20518;-83
2023/08/09 08:00:56;;;;;;;4.70;1.08;;;17.30;99.90;;;;;;5044318;28;20085;-83
2023/08/09 08:03:21;;;;;;;9.82;1.27;;;17.40;99.90;;;;;;5079403;28;20059;-83
2023/08/09 08:05:47;;;;;;;9.38;1.50;;;17.40;99.90;;;;;;5063394;28;20118;-82
2023/08/09 08:08:14;;;;;;;7.00;0.93;;;17.50;99.90;;;;;;5064617;28;20040;-83
2023/08/09 08:10:41;;;;;;;6.10;0.93;;;17.50;99.90;;;;;;5066563;28;20049;-83
2023/08/09 08:13:07;;;;;;;5.95;0.80;;;17.60;99.90;;;;;;5066583;28;20154;-83
2023/08/09 08:15:32;;;;;;;7.78;0.80;;;17.70;99.90;;;;;;5068079;28;20127;-83
2023/08/09 08:17:58;;;;;;;7.88;1.08;;;17.70;99.90;;;;;;5065479;28;20445;-83
2023/08/09 08:20:24;;;;;;;5.45;1.00;;;17.70;99.90;;;;;;5049298;28;20479;-83
2023/08/09 08:22:51;;;;;;;3.33;0.80;;;17.80;99.90;;;;;;5046999;28;20045;-83
2023/08/09 08:25:19;;;;;;;5.00;0.82;;;17.80;99.90;;;;;;5065270;28;20090;-83
2023/08/09 08:27:45;;;;;;;8.57;0.90;;;18.00;99.90;;;;;;5049244;28;20086;-83
2023/08/09 08:30:13;;;;;;;5.28;0.82;;;18.00;99.90;;;;;;5047960;28;20049;-82
2023/08/09 08:32:39;;;;;;;4.30;0.73;;;18.00;99.90;;;;;;5065283;28;20048;-83
2023/08/09 08:35:10;;;;;;;5.32;0.50;;;18.20;99.90;;;;;;5066758;28;20041;-83
2023/08/09 08:37:36;;;;;;;5.75;0.80;;;18.40;99.90;;;;;;5077068;28;20088;-83
2023/08/09 08:40:07;;;;;;;5.75;0.77;;;18.40;99.90;;;;;;5047710;28;20044;-83
2023/08/09 08:42:33;;;;;;;4.45;0.82;;;18.50;99.90;;;;;;5066692;28;20045;-82
2023/08/09 08:45:00;;;;;;;3.72;0.73;;;18.60;99.90;;;;;;5047356;28;20518;-83
2023/08/09 08:47:26;;;;;;;6.97;0.90;;;18.70;99.90;;;;;;5036365;28;20091;-83
2023/08/09 08:49:55;;;;;;;4.20;0.57;;;18.70;99.90;;;;;;5064523;28;20052;-83
2023/08/09 08:52:27;;;;;;;2.40;0.70;;;18.60;99.90;;;;;;5053756;28;20048;-83
2023/08/09 08:54:53;;;;;;;4.28;0.73;;;18.40;99.90;;;;;;5066293;28;20084;-83
2023/08/09 08:57:20;;;;;;;4.38;1.10;;;18.30;99.90;;;;;;5048252;28;20638;-83
2023/08/09 08:59:46;;;;;;;4.75;0.70;;;18.40;99.90;;;;;;5064917;28;20040;-83
2023/08/09 09:02:13;;;;;;;3.47;0.68;;;18.50;99.90;;;;;;5066058;28;20127;-83
2023/08/09 09:04:39;;;;;;;5.15;0.85;;;18.70;99.90;;;;;;5064292;28;20476;-83
2023/08/09 09:07:05;;;;;;;5.45;1.10;;;18.90;99.90;;;;;;5064726;28;20040;-84
2023/08/09 09:09:31;;;;;;;3.53;0.80;;;19.10;99.90;;;;;;5048666;28;20355;-84
2023/08/09 09:12:00;;;;;;;4.93;0.57;;;19.10;99.90;;;;;;5047645;28;20095;-84
2023/08/09 09:14:26;;;;;;;8.15;1.35;;;19.10;99.90;;;;;;5070409;28;20061;-83
2023/08/09 09:16:52;;;;;;;6.07;0.80;;;19.00;99.90;;;;;;5044480;28;20053;-83
2023/08/09 09:19:18;;;;;;;2.25;0.50;;;19.10;99.90;;;;;;5075772;28;20041;-85
2023/08/09 09:21:44;;;;;;;4.60;1.15;;;19.10;99.90;;;;;;5068585;28;20071;-83
2023/08/09 09:24:10;;;;;;;4.13;0.75;;;19.10;99.90;;;;;;5070219;28;20052;-83
2023/08/09 09:26:37;;;;;;;3.10;0.70;;;19.20;99.90;;;;;;5057532;28;20134;-84
2023/08/09 09:29:09;;;;;;;3.80;0.60;;;19.30;99.90;;;;;;5081670;28;20423;-85
2023/08/09 09:31:39;;;;;;;4.68;0.75;;;19.40;99.90;;;;;;5065579;28;20138;-84
2023/08/09 09:34:07;;;;;;;3.15;0.60;;;19.20;99.90;;;;;;5061697;28;20557;-83
2023/08/09 09:36:37;;;;;;;2.88;0.80;;;19.10;99.90;;;;;;5076762;28;20392;-82
2023/08/09 09:39:09;;;;;;;2.75;0.70;;;18.90;99.90;;;;;;5080808;28;20049;-82
2023/08/09 09:41:36;;;;;;;3.63;0.60;;;18.80;99.90;;;;;;5060308;28;20529;-82
2023/08/09 09:44:03;;;;;;;3.78;0.80;;;18.60;99.90;;;;;;5075410;28;20101;-82
2023/08/09 09:46:28;;;;;;;2.58;0.85;;;18.40;99.90;;;;;;5074259;28;20222;-82
2023/08/09 09:48:59;;;;;;;3.35;0.60;;;18.40;99.90;;;;;;5077779;28;20119;-82
2023/08/09 09:51:26;;;;;;;5.70;0.88;;;18.70;99.90;;;;;;5068663;28;20043;-82
2023/08/09 09:53:52;;;;;;;4.28;0.93;;;19.00;99.90;;;;;;5082817;28;20463;-83
2023/08/09 09:56:19;;;;;;;4.05;0.80;;;19.20;99.90;;;;;;5085198;28;20086;-82
2023/08/09 09:58:45;;;;;;;4.68;1.05;;;19.20;99.90;;;;;;5066236;28;20137;-83
2023/08/09 10:01:19;;;;;;;5.40;0.60;;;19.00;99.90;;;;;;5065408;28;20389;-83
2023/08/09 10:03:45;;;;;;;5.38;0.60;;;18.90;99.90;;;;;;5059283;28;20052;-83
2023/08/09 10:06:34;;;;;;;4.40;0.88;;;18.60;99.90;;;;;;5076881;28;20051;-84
2023/08/09 10:09:01;;;;;;;2.90;0.70;;;18.50;99.90;;;;;;5098331;28;20040;-83
2023/08/09 10:11:29;;;;;;;6.40;0.90;;;18.50;99.90;;;;;;5081665;28;20131;-84
2023/08/09 10:14:00;;;;;;;4.00;0.80;;;18.70;99.90;;;;;;5067940;28;20076;-84
2023/08/09 10:16:28;;;;;;;4.35;0.75;;;19.00;99.90;;;;;;5080094;28;20182;-84
2023/08/09 10:19:00;;;;;;;3.63;0.70;;;19.30;99.90;;;;;;5063527;28;20080;-84
2023/08/09 10:21:26;;;;;;;2.78;0.50;;;19.30;99.90;;;;;;5049852;28;20052;-83
2023/08/09 10:24:07;;;;;;;4.00;0.80;;;19.60;99.90;;;;;;5072946;28;20043;-84
2023/08/09 10:26:36;;;;;;;5.03;0.80;;;19.90;99.90;;;;;;5066297;28;20143;-84
2023/08/09 10:29:07;;;;;;;3.30;0.57;;;20.20;99.90;;;;;;5072848;28;20171;-83
2023/08/09 10:31:53;;;;;;;4.00;0.70;;;20.30;99.90;;;;;;5058039;28;20132;-85
2023/08/09 10:34:36;;;;;;;5.25;0.68;;;20.60;99.90;;;;;;5052264;28;20566;-84
2023/08/09 10:37:06;;;;;;;4.07;0.82;;;20.60;99.90;;;;;;5075715;28;20109;-83
2023/08/09 10:39:33;;;;;;;6.93;0.80;;;20.50;99.90;;;;;;5049481;28;20503;-84
2023/08/09 10:42:07;;;;;;;3.33;0.60;;;20.30;99.90;;;;;;5049434;28;20036;-83
2023/08/09 10:44:43;;;;;;;4.72;0.90;;;20.00;99.90;;;;;;5065694;28;20450;-83
2023/08/09 10:47:11;;;;;;;1.95;0.57;;;19.80;99.90;;;;;;5071321;28;20044;-83
2023/08/09 10:49:49;;;;;;;6.70;0.77;;;19.90;99.90;;;;;;5074989;28;20046;-83
2023/08/09 10:52:28;;;;;;;3.75;0.75;;;19.80;99.90;;;;;;5059565;28;20127;-83
2023/08/09 10:55:28;;;;;;;4.05;0.63;;;19.70;99.90;;;;;;5056061;28;20108;-83
2023/08/09 10:57:56;;;;;;;4.03;0.70;;;19.90;99.90;;;;;;5072048;28;20107;-83
2023/08/09 11:00:23;;;;;;;4.88;1.17;;;19.90;99.90;;;;;;5082423;28;20094;-83
2023/08/09 11:02:58;;;;;;;4.72;0.70;;;19.90;99.90;;;;;;5076260;28;20056;-83
2023/08/09 11:05:25;;;;;;;5.72;0.75;;;19.80;99.90;;;;;;5074671;28;20036;-83
2023/08/09 11:07:53;;;;;;;2.92;0.73;;;19.90;99.90;;;;;;5075914;28;20052;-84
2023/08/09 11:10:31;;;;;;;4.35;0.85;;;20.10;99.90;;;;;;5076564;28;20443;-83
2023/08/09 11:13:01;;;;;;;4.93;0.73;;;20.20;99.90;;;;;;5078432;28;20356;-83
2023/08/09 11:15:27;;;;;;;3.72;0.60;;;20.20;99.90;;;;;;5075753;28;20386;-84
2023/08/09 11:17:53;;;;;;;3.95;0.70;;;20.30;99.90;;;;;;5074838;28;20132;-82
2023/08/09 11:20:19;;;;;;;2.88;0.60;;;20.30;99.90;;;;;;5074236;28;20460;-82
2023/08/09 11:22:55;;;;;;;4.30;1.45;;;20.30;99.90;;;;;;5064283;28;20456;-82
2023/08/09 11:25:22;;;;;;;4.53;0.98;;;20.40;99.90;;;;;;5071719;28;20032;-83
2023/08/09 11:27:55;;;;;;;2.97;1.27;;;20.40;99.90;;;;;;5072009;28;20044;-82
2023/08/09 11:30:22;;;;;;;4.28;0.50;;;20.50;99.90;;;;;;5049556;28;20067;-83
2023/08/09 11:32:58;;;;;;;3.20;0.60;;;20.50;99.90;;;;;;5049612;28;20131;-82
2023/08/09 11:35:54;;;;;;;2.53;0.30;;;20.60;99.90;;;;;;5059367;28;20048;-84
2023/08/09 11:38:20;;;;;;;5.93;0.77;;;20.50;99.90;;;;;;5074060;28;20040;-83
2023/08/09 11:40:50;;;;;;;2.42;0.50;;;20.30;99.90;;;;;;5058756;28;20048;-83
2023/08/09 11:43:18;;;;;;;1.95;0.47;;;20.10;99.90;;;;;;5061393;28;20554;-83
2023/08/09 11:45:49;;;;;;;2.70;0.60;;;20.00;99.90;;;;;;5077242;28;20042;-82
2023/08/09 11:48:37;;;;;;;5.60;0.70;;;20.10;99.90;;;;;;5080720;28;20051;-82
2023/08/09 11:51:12;;;;;;;2.90;0.60;;;20.00;99.90;;;;;;5076772;28;20044;-82
2023/08/09 11:53:39;;;;;;;3.70;0.80;;;19.90;99.90;;;;;;5075221;28;20475;-83
2023/08/09 11:56:18;;;;;;;4.15;0.68;;;19.80;99.90;;;;;;5077267;28;20073;-83
2023/08/09 11:58:46;;;;;;;5.63;0.90;;;19.60;99.90;;;;;;5066403;28;20048;-83
2023/08/09 12:01:18;;;;;;;3.28;0.68;;;19.50;99.90;;;;;;5056135;28;20053;-82
2023/08/09 12:03:49;;;;;;;3.88;0.88;;;19.40;99.90;;;;;;5058801;28;20057;-82
2023/08/09 12:06:17;;;;;;;4.75;0.80;;;19.30;99.90;;;;;;5064547;28;20044;-82
2023/08/09 12:08:43;;;;;;;6.53;0.70;;;19.20;99.90;;;;;;5078959;28;20440;-83
2023/08/09 12:11:14;;;;;;;3.40;0.70;;;19.10;99.90;;;;;;5068148;28;20077;-83
2023/08/09 12:13:40;;;;;;;5.30;0.90;;;19.10;99.90;;;;;;5062346;28;20056;-83
2023/08/09 12:16:07;;;;;;;5.88;0.73;;;19.20;99.90;;;;;;5063823;28;20820;-82
2023/08/09 12:18:36;;;;;;;2.75;0.80;;;19.20;99.90;;;;;;5073750;28;20048;-83
2023/08/09 12:21:05;;;;;;;4.05;0.90;;;19.10;99.90;;;;;;5073727;28;20472;-82
2023/08/09 12:23:32;;;;;;;5.25;0.77;;;19.10;99.90;;;;;;5081176;28;20048;-82
2023/08/09 12:25:58;;;;;;;4.82;0.80;;;19.10;99.90;;;;;;5072160;28;20055;-82
2023/08/09 12:28:24;;;;;;;3.95;0.80;;;19.20;99.90;;;;;;5080618;28;20407;-82
2023/08/09 12:30:49;;;;;;;2.05;0.50;;;19.30;99.90;;;;;;5075367;28;20041;-82
2023/08/09 12:33:16;;;;;;;3.00;0.63;;;19.40;99.90;;;;;;5071952;28;20054;-82
2023/08/09 12:35:42;;;;;;;4.35;0.57;;;19.40;99.90;;;;;;5049214;28;20373;-83
2023/08/09 12:38:09;;;;;;;4.03;0.90;;;19.50;99.90;;;;;;5075391;28;20101;-83
2023/08/09 12:40:35;;;;;;;3.25;0.93;;;19.70;99.90;;;;;;5077152;28;20045;-83
2023/08/09 12:43:00;;;;;;;6.90;0.88;;;19.90;99.90;;;;;;5070472;28;20044;-84
2023/08/09 12:45:26;;;;;;;3.42;0.85;;;20.20;99.90;;;;;;5052515;28;20087;-83
2023/08/09 12:47:53;;;;;;;3.95;0.73;;;20.20;99.90;;;;;;5053498;28;20106;-83
2023/08/09 12:50:20;;;;;;;4.53;0.85;;;20.20;99.90;;;;;;5073258;28;20123;-83